Time;durP1;ratioP1;P1;durP2;ratioP2;P2;SDS_P1;SDS_P2;PMS_P1;PMS_P2;Temp;Humidity;BMP_temperature;BMP_pressure;BME280_temperature;BME280_humidity;BME280_pressure;Samples;Min_cycle;Max_cycle;Signal;HPM_P1;HPM_P2
2023/09/18 00:00:35;;;;;;;4.15;3.40;;;19.90;99.90;;;;;;4870607;29;20659;-58
2023/09/18 00:03:02;;;;;;;4.75;3.47;;;19.90;99.90;;;;;;4866725;29;21027;-56
2023/09/18 00:05:31;;;;;;;5.13;3.75;;;19.80;99.90;;;;;;4867433;29;20202;-62
2023/09/18 00:07:58;;;;;;;8.43;3.15;;;19.80;99.90;;;;;;4868933;29;20202;-60
2023/09/18 00:10:26;;;;;;;4.93;3.30;;;19.80;99.90;;;;;;4869378;29;20282;-69
2023/09/18 00:12:53;;;;;;;6.85;3.58;;;19.80;99.90;;;;;;4870813;29;20263;-60
2023/09/18 00:15:20;;;;;;;6.70;3.38;;;19.80;99.90;;;;;;4883262;29;20233;-57
2023/09/18 00:17:47;;;;;;;8.38;3.25;;;19.80;99.90;;;;;;4887861;29;20245;-58
2023/09/18 00:20:17;;;;;;;4.65;3.40;;;19.80;99.90;;;;;;4871535;29;20205;-59
2023/09/18 00:22:44;;;;;;;5.78;3.67;;;19.80;99.90;;;;;;4873865;29;20198;-59
2023/09/18 00:25:11;;;;;;;4.20;3.60;;;19.90;99.90;;;;;;4892750;29;20670;-58
2023/09/18 00:27:38;;;;;;;3.95;3.50;;;19.90;99.90;;;;;;4878622;29;20663;-58
2023/09/18 00:30:06;;;;;;;6.07;3.90;;;19.90;99.90;;;;;;4869016;29;20229;-57
2023/09/18 00:32:33;;;;;;;9.35;3.58;;;19.90;99.90;;;;;;4874355;29;20218;-57
2023/09/18 00:35:00;;;;;;;6.72;3.97;;;19.80;99.90;;;;;;4878146;29;20669;-60
2023/09/18 00:37:28;;;;;;;6.68;3.80;;;19.80;99.90;;;;;;4877146;29;20620;-58
2023/09/18 00:39:55;;;;;;;4.90;3.70;;;19.80;99.90;;;;;;4867587;29;20199;-60
2023/09/18 00:42:22;;;;;;;7.68;3.72;;;19.80;99.90;;;;;;4876696;29;20210;-59
2023/09/18 00:44:50;;;;;;;4.45;3.70;;;19.80;99.90;;;;;;4877477;29;20200;-59
2023/09/18 00:47:17;;;;;;;12.45;3.72;;;19.80;99.90;;;;;;4891134;29;20198;-60
2023/09/18 00:49:48;;;;;;;5.28;3.50;;;19.80;99.90;;;;;;4893631;29;20214;-61
2023/09/18 00:52:16;;;;;;;4.45;3.45;;;19.80;99.90;;;;;;4882476;29;20618;-61
2023/09/18 00:54:44;;;;;;;5.75;3.70;;;19.80;99.90;;;;;;4878400;29;20766;-61
2023/09/18 00:57:16;;;;;;;5.30;3.63;;;19.70;99.90;;;;;;4873764;29;20276;-60
2023/09/18 00:59:43;;;;;;;7.32;3.50;;;19.70;99.90;;;;;;4882252;29;20201;-61
2023/09/18 01:02:10;;;;;;;6.43;3.75;;;19.70;99.90;;;;;;4878751;29;20209;-60
2023/09/18 01:04:37;;;;;;;5.53;3.70;;;19.70;99.90;;;;;;4876816;29;20206;-60
2023/09/18 01:07:04;;;;;;;8.30;4.03;;;19.60;99.90;;;;;;4876194;29;20201;-61
2023/09/18 01:09:33;;;;;;;6.72;3.60;;;19.60;99.90;;;;;;4891572;29;20686;-60
2023/09/18 01:12:21;;;;;;;6.13;3.75;;;19.60;99.90;;;;;;4868239;29;20246;-60
2023/09/18 01:15:03;;;;;;;4.45;3.58;;;19.60;99.90;;;;;;4891423;29;20294;-60
2023/09/18 01:17:36;;;;;;;5.18;3.75;;;19.60;99.90;;;;;;4885250;29;20194;-60
2023/09/18 01:20:05;;;;;;;6.32;3.65;;;19.60;99.90;;;;;;4885099;29;20309;-60
2023/09/18 01:22:32;;;;;;;4.43;3.53;;;19.50;99.90;;;;;;4895756;29;20201;-60
2023/09/18 01:24:59;;;;;;;6.75;3.85;;;19.50;99.90;;;;;;4879468;29;20208;-60
2023/09/18 01:27:26;;;;;;;5.00;3.90;;;19.50;99.90;;;;;;4888219;29;20663;-59
2023/09/18 01:29:56;;;;;;;7.40;3.85;;;19.40;99.90;;;;;;4873003;29;20757;-58
2023/09/18 01:32:27;;;;;;;8.57;4.07;;;19.40;99.90;;;;;;4875728;29;20316;-58
2023/09/18 01:34:57;;;;;;;8.93;3.78;;;19.40;99.90;;;;;;4876677;29;20624;-65
2023/09/18 01:37:27;;;;;;;8.38;3.83;;;19.40;99.90;;;;;;4878877;29;20277;-59
2023/09/18 01:39:58;;;;;;;6.38;4.32;;;19.40;99.90;;;;;;4875567;29;20206;-62
2023/09/18 01:42:29;;;;;;;11.02;4.53;;;19.40;99.90;;;;;;4876664;29;20697;-59
2023/09/18 01:44:56;;;;;;;6.07;4.03;;;19.40;99.90;;;;;;4881608;29;20626;-61
2023/09/18 01:47:23;;;;;;;8.25;3.80;;;19.40;99.90;;;;;;4876759;29;20602;-73
2023/09/18 01:49:51;;;;;;;7.50;4.30;;;19.40;99.90;;;;;;4863524;29;20755;-61
2023/09/18 01:52:17;;;;;;;12.00;4.63;;;19.30;99.90;;;;;;4889097;29;20197;-64
2023/09/18 01:54:45;;;;;;;6.70;4.57;;;19.30;99.90;;;;;;4879004;29;20194;-60
2023/09/18 01:57:12;;;;;;;5.55;4.13;;;19.40;99.90;;;;;;4876976;29;20208;-61
2023/09/18 01:59:41;;;;;;;8.63;4.28;;;19.50;99.90;;;;;;4877443;29;20301;-69
2023/09/18 02:06:09;;;;;;;9.57;4.85;;;19.40;99.90;;;;;;4885220;29;20234;-59
2023/09/18 02:08:36;;;;;;;10.40;4.22;;;19.40;99.90;;;;;;4876299;29;20301;-59
2023/09/18 02:11:04;;;;;;;13.07;4.93;;;19.40;99.90;;;;;;4890005;29;20213;-59
2023/09/18 02:13:31;;;;;;;10.90;4.03;;;19.40;99.90;;;;;;4889224;29;20258;-60
2023/09/18 02:15:58;;;;;;;8.60;4.65;;;19.40;99.90;;;;;;4880613;29;20262;-60
2023/09/18 02:18:25;;;;;;;6.57;4.32;;;19.40;99.90;;;;;;4876235;29;20198;-61
2023/09/18 02:20:52;;;;;;;6.38;4.70;;;19.30;99.90;;;;;;4876363;29;20241;-59
2023/09/18 02:23:19;;;;;;;11.13;4.60;;;19.30;99.90;;;;;;4871248;29;20197;-58
2023/09/18 02:25:47;;;;;;;8.45;4.65;;;19.30;99.90;;;;;;4879287;29;20198;-58
2023/09/18 02:28:15;;;;;;;6.72;4.43;;;19.30;99.90;;;;;;4878010;29;20572;-58
2023/09/18 02:30:44;;;;;;;6.70;4.85;;;19.30;99.90;;;;;;4876042;29;20546;-63
2023/09/18 02:33:12;;;;;;;6.20;3.90;;;19.20;99.90;;;;;;4863773;29;20248;-58
2023/09/18 02:35:40;;;;;;;5.13;4.30;;;19.30;99.90;;;;;;4860604;29;20303;-58
2023/09/18 02:38:07;;;;;;;6.85;4.55;;;19.20;99.90;;;;;;4848557;29;20575;-57
2023/09/18 02:40:34;;;;;;;5.78;4.60;;;19.20;99.90;;;;;;4848708;29;20213;-57
2023/09/18 02:43:04;;;;;;;7.88;4.95;;;19.30;99.90;;;;;;4838950;29;20616;-58
2023/09/18 02:45:33;;;;;;;8.93;4.65;;;19.30;99.90;;;;;;4875076;29;20245;-58
2023/09/18 02:47:59;;;;;;;7.93;3.97;;;19.40;99.90;;;;;;4871071;29;20254;-58
2023/09/18 02:50:26;;;;;;;10.48;4.57;;;19.50;99.90;;;;;;4860952;29;20218;-60
2023/09/18 02:52:53;;;;;;;6.82;4.43;;;19.50;99.90;;;;;;4875590;29;20200;-64
2023/09/18 02:55:21;;;;;;;12.40;4.50;;;19.60;99.90;;;;;;4867982;29;20194;-58
2023/09/18 02:57:47;;;;;;;8.23;3.83;;;19.60;99.90;;;;;;4877329;29;20213;-60
2023/09/18 03:00:15;;;;;;;10.13;4.20;;;19.60;99.90;;;;;;4847097;29;20224;-58
2023/09/18 03:02:42;;;;;;;7.97;4.60;;;19.60;99.90;;;;;;4874511;29;20201;-58
2023/09/18 03:05:09;;;;;;;10.88;4.57;;;19.70;99.90;;;;;;4870870;29;20296;-57
2023/09/18 03:07:37;;;;;;;10.00;3.88;;;19.70;99.90;;;;;;4860404;29;20210;-58
2023/09/18 03:10:05;;;;;;;7.85;4.15;;;19.70;99.90;;;;;;4858233;29;20262;-58
2023/09/18 03:12:33;;;;;;;5.47;3.67;;;19.70;99.90;;;;;;4857999;29;20198;-58
2023/09/18 03:15:00;;;;;;;6.03;3.80;;;19.80;99.90;;;;;;4879641;29;20221;-58
2023/09/18 03:17:27;;;;;;;7.03;3.75;;;19.80;99.90;;;;;;4865032;29;20201;-58
2023/09/18 03:19:54;;;;;;;6.55;3.95;;;19.80;99.90;;;;;;4877476;29;20297;-57
2023/09/18 03:22:21;;;;;;;4.60;3.28;;;19.80;99.90;;;;;;4874169;29;20216;-59
2023/09/18 03:24:48;;;;;;;4.80;3.70;;;19.80;99.90;;;;;;4865603;29;20572;-62
2023/09/18 03:27:15;;;;;;;7.30;3.33;;;19.80;99.90;;;;;;4853185;29;20698;-58
2023/09/18 03:29:42;;;;;;;11.35;3.78;;;19.90;99.90;;;;;;4847523;29;20288;-59
2023/09/18 03:32:12;;;;;;;6.45;3.75;;;19.80;99.90;;;;;;4863083;29;20324;-58
2023/09/18 03:34:40;;;;;;;7.72;3.95;;;19.90;99.90;;;;;;4860619;29;20201;-58
2023/09/18 03:37:09;;;;;;;5.00;3.70;;;19.90;99.90;;;;;;4874130;29;20224;-59
2023/09/18 03:39:36;;;;;;;9.65;3.90;;;19.90;99.90;;;;;;4872299;29;20205;-64
2023/09/18 03:42:04;;;;;;;4.13;3.33;;;20.00;99.90;;;;;;4858965;29;20209;-61
2023/09/18 03:44:32;;;;;;;5.20;3.30;;;20.00;99.90;;;;;;4879644;29;20216;-56
2023/09/18 03:46:59;;;;;;;4.68;3.38;;;20.10;99.90;;;;;;4871970;29;20301;-57
2023/09/18 03:49:28;;;;;;;7.25;3.47;;;20.20;99.90;;;;;;4866587;29;20205;-56
2023/09/18 03:51:54;;;;;;;3.65;2.85;;;20.30;99.90;;;;;;4873554;29;20218;-56
2023/09/18 03:54:21;;;;;;;4.20;3.05;;;20.40;99.90;;;;;;4860176;29;20205;-62
2023/09/18 03:56:49;;;;;;;3.95;2.95;;;20.60;99.90;;;;;;4864440;29;20665;-58
2023/09/18 03:59:16;;;;;;;6.82;2.60;;;20.70;99.90;;;;;;4877913;29;20198;-56
2023/09/18 04:01:43;;;;;;;3.55;2.63;;;21.00;99.90;;;;;;4881229;29;20212;-56
2023/09/18 04:04:10;;;;;;;3.85;2.80;;;21.00;99.90;;;;;;4878803;29;20544;-56
2023/09/18 04:06:42;;;;;;;4.68;2.45;;;21.10;99.90;;;;;;4868395;29;20206;-56
2023/09/18 04:09:09;;;;;;;5.05;3.05;;;21.10;99.90;;;;;;4867006;29;20708;-57
2023/09/18 04:11:36;;;;;;;7.63;2.70;;;21.10;99.90;;;;;;4863974;29;20214;-57
2023/09/18 04:14:04;;;;;;;4.95;3.30;;;21.10;99.90;;;;;;4875163;29;20225;-57
2023/09/18 04:16:35;;;;;;;5.63;2.85;;;21.10;99.90;;;;;;4880783;29;20216;-58
2023/09/18 04:19:02;;;;;;;3.20;2.70;;;21.00;99.90;;;;;;4875257;29;20199;-56
2023/09/18 04:21:29;;;;;;;5.60;3.08;;;21.00;99.90;;;;;;4879667;29;20206;-60
2023/09/18 04:23:59;;;;;;;4.40;2.92;;;21.00;99.90;;;;;;4878482;29;20845;-57
2023/09/18 04:26:30;;;;;;;5.78;2.75;;;21.10;99.90;;;;;;4889646;29;20209;-57
2023/09/18 04:28:59;;;;;;;3.60;2.75;;;21.10;99.90;;;;;;4875516;29;20300;-57
2023/09/18 04:31:27;;;;;;;6.00;3.10;;;21.10;99.90;;;;;;4876435;29;20214;-58
2023/09/18 04:33:55;;;;;;;4.28;2.72;;;21.10;99.90;;;;;;4881779;29;20194;-57
2023/09/18 04:36:22;;;;;;;6.43;2.95;;;21.00;99.90;;;;;;4888311;29;20208;-58
2023/09/18 04:38:50;;;;;;;6.47;2.97;;;21.20;99.90;;;;;;4888269;29;20199;-59
2023/09/18 04:41:17;;;;;;;3.47;2.65;;;21.10;99.90;;;;;;4869964;29;20201;-58
2023/09/18 04:43:44;;;;;;;7.13;2.53;;;21.10;99.90;;;;;;4875876;29;20205;-58
2023/09/18 04:46:11;;;;;;;4.30;2.33;;;21.00;99.90;;;;;;4883319;29;20595;-58
2023/09/18 04:48:40;;;;;;;6.18;2.50;;;21.30;99.90;;;;;;4876236;29;20216;-57
2023/09/18 04:51:08;;;;;;;4.97;2.53;;;21.20;99.90;;;;;;4891084;29;20225;-57
2023/09/18 04:53:35;;;;;;;4.63;2.92;;;21.10;99.90;;;;;;4875781;29;20233;-59
2023/09/18 04:56:03;;;;;;;5.55;2.80;;;21.20;99.90;;;;;;4878624;29;20644;-57
2023/09/18 04:58:31;;;;;;;5.43;2.60;;;21.10;99.90;;;;;;4879517;29;21010;-60
2023/09/18 05:01:00;;;;;;;3.53;2.95;;;21.10;99.90;;;;;;4878255;29;20346;-61
2023/09/18 05:03:29;;;;;;;8.30;2.65;;;21.30;99.90;;;;;;4877942;29;20216;-60
2023/09/18 05:05:57;;;;;;;8.95;2.38;;;21.30;99.90;;;;;;4880309;29;20287;-59
2023/09/18 05:08:24;;;;;;;4.47;2.35;;;21.30;99.90;;;;;;4874126;29;20826;-57
2023/09/18 05:10:51;;;;;;;4.60;2.13;;;21.30;99.90;;;;;;4876899;29;20600;-56
2023/09/18 05:13:18;;;;;;;3.83;2.38;;;21.40;99.90;;;;;;4877162;29;20206;-59
2023/09/18 05:15:44;;;;;;;4.93;2.03;;;21.30;99.90;;;;;;4857624;29;20595;-59
2023/09/18 05:18:13;;;;;;;4.05;2.53;;;21.30;99.90;;;;;;4859082;29;20254;-58
2023/09/18 05:20:40;;;;;;;6.95;2.65;;;21.30;99.90;;;;;;4863005;29;20657;-59
2023/09/18 05:23:07;;;;;;;5.28;2.42;;;21.30;99.90;;;;;;4864833;29;20210;-59
2023/09/18 05:25:37;;;;;;;6.63;2.50;;;21.30;99.90;;;;;;4862775;29;20221;-59
2023/09/18 05:28:05;;;;;;;8.40;2.80;;;21.20;99.90;;;;;;4858283;29;20205;-59
2023/09/18 05:30:35;;;;;;;5.25;2.42;;;21.20;99.90;;;;;;4856736;29;20245;-61
2023/09/18 05:33:06;;;;;;;4.13;2.50;;;21.20;99.90;;;;;;4863553;29;20304;-59
2023/09/18 05:35:43;;;;;;;4.53;2.13;;;21.20;99.90;;;;;;4858410;29;20251;-59
2023/09/18 05:38:14;;;;;;;4.78;2.30;;;21.20;99.90;;;;;;4851109;29;20201;-59
2023/09/18 05:40:41;;;;;;;6.07;2.25;;;21.20;99.90;;;;;;4842685;29;20210;-59
2023/09/18 05:43:09;;;;;;;7.90;2.70;;;21.30;99.90;;;;;;4854294;29;20257;-62
2023/09/18 05:45:36;;;;;;;8.55;2.72;;;21.30;99.90;;;;;;4860247;29;20205;-61
2023/09/18 05:48:04;;;;;;;4.55;2.05;;;21.30;99.90;;;;;;4841556;29;20202;-59
2023/09/18 05:50:33;;;;;;;10.02;3.10;;;21.30;99.90;;;;;;4861707;29;20213;-59
2023/09/18 05:53:00;;;;;;;5.78;2.03;;;21.50;99.90;;;;;;4859589;29;20656;-59
2023/09/18 05:55:27;;;;;;;6.70;2.25;;;21.50;99.90;;;;;;4858229;29;20250;-59
2023/09/18 05:57:55;;;;;;;5.85;2.13;;;21.60;99.90;;;;;;4860767;29;20280;-59
2023/09/18 06:00:22;;;;;;;5.82;2.15;;;21.70;99.90;;;;;;4858939;29;20687;-59
2023/09/18 06:02:50;;;;;;;2.47;1.80;;;21.80;99.90;;;;;;4859934;29;20209;-59
2023/09/18 06:05:21;;;;;;;8.35;2.28;;;21.90;99.90;;;;;;4856924;29;20206;-59
2023/09/18 06:07:49;;;;;;;3.92;2.00;;;21.90;99.90;;;;;;4859431;29;20552;-56
2023/09/18 06:10:18;;;;;;;6.50;2.30;;;21.80;99.90;;;;;;4850113;29;20251;-58
2023/09/18 06:12:45;;;;;;;4.88;1.88;;;21.90;99.90;;;;;;4857134;29;20664;-56
2023/09/18 06:15:12;;;;;;;5.72;2.28;;;21.90;99.90;;;;;;4877199;29;20844;-56
2023/09/18 06:17:41;;;;;;;6.68;1.85;;;22.10;99.90;;;;;;4886558;29;20205;-56
2023/09/18 06:20:10;;;;;;;6.03;2.67;;;22.10;99.90;;;;;;4871494;29;20209;-56
2023/09/18 06:22:38;;;;;;;7.32;2.20;;;22.30;99.90;;;;;;4877536;29;20224;-57
2023/09/18 06:25:06;;;;;;;5.15;1.90;;;22.60;99.90;;;;;;4877952;29;20201;-59
2023/09/18 06:27:36;;;;;;;6.55;2.10;;;22.60;99.90;;;;;;4886279;29;20679;-60
2023/09/18 06:30:07;;;;;;;4.00;1.80;;;22.50;99.90;;;;;;4878579;29;20208;-57
2023/09/18 06:32:34;;;;;;;6.07;2.00;;;22.90;99.90;;;;;;4872241;29;20240;-63
2023/09/18 06:35:01;;;;;;;4.32;1.95;;;22.70;99.90;;;;;;4873265;29;20197;-57
2023/09/18 06:37:28;;;;;;;2.67;2.05;;;22.50;99.90;;;;;;4876095;29;20253;-56
2023/09/18 06:39:56;;;;;;;3.83;1.65;;;22.30;99.90;;;;;;4876171;29;20297;-58
2023/09/18 06:42:23;;;;;;;2.35;1.63;;;22.30;99.90;;;;;;4864796;29;20354;-56
2023/09/18 06:44:56;;;;;;;3.55;1.90;;;22.20;99.90;;;;;;4864190;29;20663;-56
2023/09/18 06:47:24;;;;;;;6.38;2.03;;;22.10;99.90;;;;;;4858504;29;20202;-57
2023/09/18 06:49:51;;;;;;;5.30;1.88;;;22.00;99.90;;;;;;4857090;29;20198;-57
2023/09/18 06:52:18;;;;;;;2.85;1.85;;;22.00;99.90;;;;;;4873730;29;20305;-57
2023/09/18 06:54:45;;;;;;;7.47;1.98;;;22.00;99.90;;;;;;4865841;29;20221;-56
2023/09/18 06:57:12;;;;;;;8.05;1.95;;;22.00;99.90;;;;;;4875997;29;20213;-60
2023/09/18 06:59:39;;;;;;;2.97;1.50;;;22.00;99.90;;;;;;4872719;29;20228;-68
2023/09/18 07:02:06;;;;;;;5.70;1.95;;;22.00;99.90;;;;;;4862043;29;20201;-66
2023/09/18 07:04:34;;;;;;;4.00;1.80;;;22.00;99.90;;;;;;4883913;29;20550;-66
2023/09/18 07:07:01;;;;;;;4.25;2.13;;;22.10;99.90;;;;;;4885212;29;20217;-66
2023/09/18 07:09:28;;;;;;;4.60;1.80;;;22.10;99.90;;;;;;4876245;29;20272;-67
2023/09/18 07:11:55;;;;;;;3.10;1.58;;;22.10;99.90;;;;;;4875129;29;20207;-66
2023/09/18 07:14:22;;;;;;;4.72;2.05;;;22.20;99.90;;;;;;4872620;29;20384;-76
2023/09/18 07:16:49;;;;;;;3.72;1.60;;;22.10;99.90;;;;;;4868128;29;20282;-66
2023/09/18 07:19:16;;;;;;;4.28;1.50;;;22.00;99.90;;;;;;4859227;29;20677;-67
2023/09/18 07:21:44;;;;;;;2.75;1.52;;;22.00;99.90;;;;;;4877504;29;20201;-66
2023/09/18 07:24:16;;;;;;;9.55;2.22;;;21.90;99.90;;;;;;4875626;29;20296;-66
2023/09/18 07:26:46;;;;;;;4.10;1.98;;;22.10;99.90;;;;;;4873730;29;20285;-66
2023/09/18 07:29:14;;;;;;;7.13;1.88;;;22.00;99.90;;;;;;4854597;29;20755;-65
2023/09/18 07:31:42;;;;;;;9.27;2.35;;;22.00;99.90;;;;;;4875160;29;20691;-67
2023/09/18 07:34:10;;;;;;;3.33;1.88;;;22.00;99.90;;;;;;4874265;29;20224;-63
2023/09/18 07:36:40;;;;;;;7.43;1.83;;;22.20;99.90;;;;;;4856950;29;20210;-62
2023/09/18 07:39:07;;;;;;;3.88;1.77;;;22.40;99.90;;;;;;4871851;29;20558;-62
2023/09/18 07:41:34;;;;;;;6.65;1.80;;;22.50;99.90;;;;;;4876101;29;20678;-62
2023/09/18 07:44:01;;;;;;;3.30;1.70;;;22.80;99.90;;;;;;4875419;29;20236;-62
2023/09/18 07:46:28;;;;;;;5.50;3.47;;;22.70;99.90;;;;;;4873221;29;20201;-62
2023/09/18 07:48:55;;;;;;;3.65;1.83;;;22.70;99.90;;;;;;4874760;29;20232;-69
2023/09/18 07:51:22;;;;;;;3.63;1.80;;;22.50;99.90;;;;;;4873592;29;20225;-62
2023/09/18 07:53:49;;;;;;;7.18;1.70;;;22.30;99.90;;;;;;4860140;29;20197;-63
2023/09/18 07:56:18;;;;;;;3.83;2.00;;;22.40;99.90;;;;;;4874655;29;20715;-62
2023/09/18 07:58:46;;;;;;;7.25;2.45;;;22.30;99.90;;;;;;4875021;29;20225;-63
2023/09/18 08:01:16;;;;;;;3.03;1.67;;;22.30;99.90;;;;;;4864291;29;20206;-75
2023/09/18 08:03:43;;;;;;;5.13;2.10;;;22.30;99.90;;;;;;4862708;29;20692;-62
2023/09/18 08:06:11;;;;;;;3.03;1.73;;;22.10;99.90;;;;;;4874338;29;20196;-63
2023/09/18 08:08:39;;;;;;;7.82;2.08;;;22.20;99.90;;;;;;4878636;29;20782;-62
2023/09/18 08:11:09;;;;;;;4.03;2.38;;;22.30;99.90;;;;;;4854523;29;20310;-62
2023/09/18 08:13:37;;;;;;;5.60;1.90;;;22.40;99.90;;;;;;4875312;29;20234;-63
2023/09/18 08:16:07;;;;;;;1.75;1.38;;;22.40;99.90;;;;;;4882136;29;20181;-62
2023/09/18 08:18:35;;;;;;;3.03;1.35;;;22.50;99.90;;;;;;4876518;29;20209;-64
2023/09/18 08:21:04;;;;;;;4.10;1.35;;;22.20;99.90;;;;;;4888300;29;20767;-63
2023/09/18 08:23:32;;;;;;;3.17;1.83;;;22.20;99.90;;;;;;4875125;29;20202;-63
2023/09/18 08:25:59;;;;;;;4.78;1.60;;;22.40;99.90;;;;;;4895065;29;20211;-63
2023/09/18 08:28:26;;;;;;;2.13;1.30;;;22.40;99.90;;;;;;4877207;29;20257;-62
2023/09/18 08:30:53;;;;;;;3.40;1.80;;;22.40;99.90;;;;;;4874821;29;20870;-62
2023/09/18 08:33:21;;;;;;;5.22;2.47;;;22.50;99.90;;;;;;4873218;29;20226;-63
2023/09/18 08:35:49;;;;;;;2.75;1.27;;;22.60;99.90;;;;;;4879484;29;20682;-62
2023/09/18 08:38:16;;;;;;;5.03;1.50;;;22.60;99.90;;;;;;4874466;29;20257;-62
2023/09/18 08:40:44;;;;;;;6.25;1.80;;;22.60;99.90;;;;;;4868481;29;20207;-62
2023/09/18 08:43:14;;;;;;;7.85;1.88;;;22.50;99.90;;;;;;4888778;29;20277;-63
2023/09/18 08:45:52;;;;;;;5.63;1.35;;;22.40;99.90;;;;;;4891292;29;20578;-71
2023/09/18 08:48:20;;;;;;;2.75;1.45;;;22.60;99.90;;;;;;4887348;29;20500;-67
2023/09/18 08:50:49;;;;;;;2.80;1.48;;;22.90;99.90;;;;;;4894398;29;20200;-69
2023/09/18 08:53:16;;;;;;;2.97;1.60;;;22.90;99.90;;;;;;4871091;29;20277;-67
2023/09/18 08:55:43;;;;;;;3.45;1.80;;;23.10;99.90;;;;;;4864777;29;20201;-68
2023/09/18 08:58:10;;;;;;;2.88;1.40;;;23.10;99.90;;;;;;4890868;29;20231;-71
2023/09/18 09:00:38;;;;;;;1.90;1.73;;;22.90;99.90;;;;;;4891508;29;20701;-68
2023/09/18 09:03:05;;;;;;;4.82;1.67;;;22.70;99.90;;;;;;4891799;29;20755;-69
2023/09/18 09:05:33;;;;;;;3.20;1.40;;;22.90;99.90;;;;;;4877297;29;20210;-69
2023/09/18 09:08:01;;;;;;;2.67;1.40;;;23.30;99.90;;;;;;4873928;29;20206;-68
2023/09/18 09:10:29;;;;;;;3.72;1.23;;;23.20;99.90;;;;;;4868103;29;20261;-69
2023/09/18 09:13:01;;;;;;;3.00;1.33;;;23.20;99.90;;;;;;4881954;29;20214;-69
2023/09/18 09:15:34;;;;;;;3.20;1.40;;;23.50;99.90;;;;;;4885002;29;20712;-69
2023/09/18 09:18:05;;;;;;;2.17;1.35;;;23.30;99.90;;;;;;4848124;29;20243;-69
2023/09/18 09:20:33;;;;;;;3.60;1.63;;;23.20;99.90;;;;;;4864343;29;20235;-69
2023/09/18 09:23:10;;;;;;;2.17;1.65;;;23.30;99.90;;;;;;4892031;29;20268;-65
2023/09/18 09:25:37;;;;;;;4.28;1.85;;;23.10;99.90;;;;;;4878468;29;20630;-69
2023/09/18 09:28:07;;;;;;;2.17;1.45;;;22.90;99.90;;;;;;4863863;29;20222;-70
2023/09/18 09:30:37;;;;;;;5.93;1.48;;;22.70;99.90;;;;;;4872377;29;20198;-69
2023/09/18 09:33:07;;;;;;;2.40;1.65;;;22.80;99.90;;;;;;4856494;29;20594;-68
2023/09/18 09:35:36;;;;;;;7.30;2.45;;;22.80;99.90;;;;;;4877020;29;20201;-61
2023/09/18 09:38:09;;;;;;;2.53;1.58;;;23.00;99.90;;;;;;4873178;29;20201;-63
2023/09/18 09:40:42;;;;;;;6.60;3.67;;;22.80;99.90;;;;;;4876860;29;20230;-62
2023/09/18 09:43:13;;;;;;;2.58;1.90;;;23.10;99.90;;;;;;4877063;29;20210;-64
2023/09/18 09:45:41;;;;;;;6.72;2.08;;;23.90;99.90;;;;;;4877536;29;20253;-62
2023/09/18 09:48:09;;;;;;;2.95;1.80;;;24.20;99.90;;;;;;4885375;29;20238;-63
2023/09/18 09:51:01;;;;;;;1.58;1.30;;;25.10;99.90;;;;;;4875967;29;20598;-62
2023/09/18 09:53:47;;;;;;;2.50;2.15;;;26.00;99.90;;;;;;4874493;29;20273;-67
2023/09/18 09:56:19;;;;;;;4.68;1.83;;;28.10;99.90;;;;;;4872416;29;20193;-70
2023/09/18 09:59:02;;;;;;;6.93;1.83;;;28.90;99.90;;;;;;4879033;29;20221;-69
2023/09/18 10:01:31;;;;;;;1.70;1.60;;;27.70;99.90;;;;;;4876074;29;20197;-67
2023/09/18 10:04:00;;;;;;;2.58;1.60;;;28.20;99.90;;;;;;4875339;29;20205;-69
2023/09/18 10:06:30;;;;;;;2.17;1.58;;;28.00;99.90;;;;;;4874778;29;20564;-67
2023/09/18 10:08:57;;;;;;;3.42;1.58;;;27.10;99.90;;;;;;4875552;29;20730;-68
2023/09/18 10:11:26;;;;;;;4.07;1.35;;;27.00;99.90;;;;;;4875851;29;20242;-69
2023/09/18 10:13:55;;;;;;;2.78;1.65;;;29.20;99.90;;;;;;4865416;29;20259;-67
2023/09/18 10:16:28;;;;;;;3.30;1.45;;;27.90;99.90;;;;;;4886542;29;20686;-69
2023/09/18 10:19:04;;;;;;;2.95;1.60;;;27.80;99.90;;;;;;4847199;29;20648;-67
2023/09/18 10:21:41;;;;;;;2.97;1.60;;;28.60;99.90;;;;;;4880732;29;20681;-67
2023/09/18 10:24:31;;;;;;;4.28;1.63;;;28.80;99.90;;;;;;4865110;29;20257;-67
2023/09/18 10:27:00;;;;;;;2.45;1.60;;;28.50;99.90;;;;;;4878157;29;20644;-69
2023/09/18 10:29:30;;;;;;;5.70;1.38;;;27.30;99.90;;;;;;4859961;29;20480;-68
2023/09/18 10:31:57;;;;;;;2.08;1.55;;;26.80;99.90;;;;;;4864682;29;20325;-69
2023/09/18 10:34:25;;;;;;;3.67;1.42;;;26.40;99.90;;;;;;4884342;29;20560;-68
2023/09/18 10:36:54;;;;;;;2.20;1.48;;;25.70;99.90;;;;;;4854516;29;20259;-68
2023/09/18 10:39:24;;;;;;;4.45;1.80;;;25.20;99.90;;;;;;4867866;29;20284;-77
2023/09/18 10:41:53;;;;;;;3.97;2.55;;;25.20;99.90;;;;;;4875398;29;20340;-69
2023/09/18 10:44:21;;;;;;;3.10;2.10;;;25.40;99.90;;;;;;4874419;29;20311;-64
2023/09/18 10:46:49;;;;;;;2.47;1.70;;;25.30;99.90;;;;;;4874706;29;20199;-63
2023/09/18 10:49:16;;;;;;;3.60;1.58;;;25.10;99.90;;;;;;4878671;29;20201;-63
2023/09/18 10:51:44;;;;;;;5.82;2.08;;;24.60;99.90;;;;;;4874994;29;20296;-62
2023/09/18 10:54:15;;;;;;;2.38;1.60;;;24.70;99.90;;;;;;4883386;29;20201;-64
2023/09/18 10:56:42;;;;;;;3.25;2.10;;;24.80;99.90;;;;;;4879509;29;20285;-65
2023/09/18 10:59:10;;;;;;;3.28;1.50;;;24.80;99.90;;;;;;4873778;29;20290;-63
2023/09/18 11:01:37;;;;;;;2.55;1.85;;;25.00;99.90;;;;;;4875046;29;20265;-64
2023/09/18 11:04:10;;;;;;;2.65;1.42;;;25.60;99.90;;;;;;4874405;29;20211;-67
2023/09/18 11:06:55;;;;;;;3.25;1.50;;;26.20;99.90;;;;;;4877280;29;20256;-67
2023/09/18 11:09:28;;;;;;;2.05;1.52;;;27.50;99.90;;;;;;4874273;29;20784;-69
2023/09/18 11:12:02;;;;;;;2.15;1.55;;;28.70;99.90;;;;;;4874763;29;20258;-68
2023/09/18 11:14:58;;;;;;;2.55;1.63;;;29.40;99.90;;;;;;4870121;29;20767;-67
2023/09/18 11:17:36;;;;;;;4.20;2.20;;;30.10;99.90;;;;;;4870474;29;20670;-67
2023/09/18 11:20:08;;;;;;;2.72;2.13;;;28.90;99.90;;;;;;4865346;29;20194;-68
2023/09/18 11:22:37;;;;;;;2.83;2.08;;;29.00;99.90;;;;;;4872045;29;20280;-68
2023/09/18 11:25:42;;;;;;;2.90;1.80;;;28.30;99.90;;;;;;4874887;29;20671;-67
2023/09/18 11:28:23;;;;;;;2.00;1.90;;;28.30;99.90;;;;;;4874733;29;20198;-67
2023/09/18 11:31:00;;;;;;;3.72;1.63;;;27.60;99.90;;;;;;4860752;29;20761;-67
2023/09/18 11:33:40;;;;;;;2.67;1.80;;;27.30;99.90;;;;;;4874475;29;20258;-68
2023/09/18 11:36:30;;;;;;;2.13;1.77;;;27.50;99.90;;;;;;4870321;29;20376;-67
2023/09/18 11:39:03;;;;;;;3.95;1.77;;;28.90;99.90;;;;;;4870015;29;20304;-67
2023/09/18 11:41:33;;;;;;;2.22;1.70;;;28.90;99.90;;;;;;4873367;29;20208;-67
2023/09/18 11:44:18;;;;;;;2.00;1.80;;;27.90;99.90;;;;;;4873662;29;20448;-67
2023/09/18 11:46:52;;;;;;;3.40;2.00;;;27.10;99.90;;;;;;4884651;29;20670;-68
2023/09/18 11:49:26;;;;;;;1.73;1.60;;;28.30;99.90;;;;;;4874641;29;20688;-67
2023/09/18 11:51:58;;;;;;;3.97;1.88;;;28.00;99.90;;;;;;4874368;29;20201;-67
2023/09/18 11:54:27;;;;;;;4.40;1.85;;;27.30;99.90;;;;;;4874898;29;20197;-63
2023/09/18 11:56:54;;;;;;;4.22;2.30;;;27.70;99.90;;;;;;4874097;29;20847;-66
2023/09/18 11:59:36;;;;;;;2.90;1.90;;;27.30;99.90;;;;;;4871949;29;20206;-63
2023/09/18 12:02:05;;;;;;;4.25;2.58;;;27.90;99.90;;;;;;4873910;29;20285;-63
2023/09/18 12:04:33;;;;;;;2.20;1.98;;;27.70;99.90;;;;;;4857806;29;20280;-63
2023/09/18 12:07:00;;;;;;;2.75;1.80;;;27.90;99.90;;;;;;4882844;29;20235;-63
2023/09/18 12:09:27;;;;;;;3.60;1.80;;;27.20;99.90;;;;;;4864272;29;20644;-63
2023/09/18 12:11:56;;;;;;;2.03;1.83;;;26.90;99.90;;;;;;4870525;29;20259;-62
2023/09/18 12:14:23;;;;;;;1.75;1.65;;;26.40;99.90;;;;;;4858929;29;20238;-69
2023/09/18 12:16:50;;;;;;;1.60;1.50;;;26.10;99.90;;;;;;4879667;29;20205;-68
2023/09/18 12:19:18;;;;;;;4.07;1.90;;;25.90;99.90;;;;;;4862466;29;20210;-67
2023/09/18 12:21:49;;;;;;;1.83;1.70;;;26.30;99.90;;;;;;4878120;29;20288;-67
2023/09/18 12:24:25;;;;;;;1.75;1.60;;;26.30;99.90;;;;;;4877338;29;20213;-67
2023/09/18 12:26:54;;;;;;;1.73;1.63;;;25.70;99.90;;;;;;4883797;29;20255;-67
2023/09/18 12:29:21;;;;;;;2.90;1.52;;;26.10;99.90;;;;;;4877231;29;20230;-68
2023/09/18 12:31:50;;;;;;;1.58;1.48;;;25.90;99.90;;;;;;4877260;29;20896;-66
2023/09/18 12:34:22;;;;;;;2.22;1.55;;;26.20;99.90;;;;;;4877064;29;20241;-67
2023/09/18 12:36:51;;;;;;;4.78;1.83;;;25.50;99.90;;;;;;4878091;29;20207;-66
2023/09/18 12:39:21;;;;;;;3.33;1.73;;;25.50;99.90;;;;;;4869768;29;20190;-67
2023/09/18 12:41:49;;;;;;;4.82;1.70;;;25.30;99.90;;;;;;4874404;29;20210;-68
2023/09/18 12:44:17;;;;;;;1.70;1.58;;;25.70;99.90;;;;;;4876488;29;20208;-67
2023/09/18 12:46:44;;;;;;;1.90;1.80;;;25.70;99.90;;;;;;4881576;29;20232;-67
2023/09/18 12:49:27;;;;;;;4.07;2.00;;;25.80;99.90;;;;;;4873196;29;20213;-67
2023/09/18 12:51:59;;;;;;;2.00;1.80;;;25.70;99.90;;;;;;4876684;29;20229;-67
2023/09/18 12:54:45;;;;;;;2.20;1.70;;;25.50;99.90;;;;;;4877619;29;20578;-67
2023/09/18 12:57:16;;;;;;;1.98;1.75;;;25.40;99.90;;;;;;4877025;29;20280;-67
2023/09/18 12:59:43;;;;;;;2.38;1.60;;;25.30;99.90;;;;;;4876888;29;20197;-67